createdAt,value
2022-10-05T00:01:35.455Z,15.33
2022-10-05T00:04:23.787Z,15.32
2022-10-05T00:07:12.396Z,15.29
2022-10-05T00:09:41.077Z,15.26
2022-10-05T00:12:20.680Z,15.24
2022-10-05T00:14:52.079Z,15.18
2022-10-05T00:17:26.675Z,15.15
2022-10-05T00:19:55.346Z,15.10
2022-10-05T00:22:30.920Z,15.06
2022-10-05T00:25:03.028Z,15.02
2022-10-05T00:27:36.679Z,14.93
2022-10-05T00:30:18.616Z,14.95
2022-10-05T00:32:47.432Z,14.91
2022-10-05T00:35:19.320Z,14.89
2022-10-05T00:37:53.464Z,14.82
2022-10-05T00:40:37.112Z,14.87
2022-10-05T00:43:30.585Z,14.85
2022-10-05T00:46:17.742Z,14.90
2022-10-05T00:48:53.184Z,14.92
2022-10-05T00:51:35.792Z,14.98
2022-10-05T00:55:03.174Z,14.92
2022-10-05T00:58:19.528Z,14.88
2022-10-05T01:01:21.967Z,14.86
2022-10-05T01:04:11.576Z,14.89
2022-10-05T01:06:55.596Z,14.91
2022-10-05T01:10:16.964Z,14.90
2022-10-05T01:13:22.241Z,14.86
2022-10-05T01:16:04.546Z,14.87
2022-10-05T01:19:03.103Z,14.88
2022-10-05T01:21:41.590Z,14.80
2022-10-05T01:24:30.423Z,14.85
2022-10-05T01:27:19.586Z,14.81
2022-10-05T01:30:19.606Z,14.71
2022-10-05T01:33:12.939Z,14.69
2022-10-05T01:36:49.529Z,14.64
2022-10-05T01:40:10.197Z,14.58
2022-10-05T01:43:40.651Z,14.61
2022-10-05T01:46:38.869Z,14.62
2022-10-05T01:49:39.204Z,14.67
2022-10-05T01:53:08.311Z,14.60
2022-10-05T01:56:36.100Z,14.63
2022-10-05T01:59:32.243Z,14.65
2022-10-05T02:02:14.181Z,14.63
2022-10-05T02:05:05.413Z,14.65
2022-10-05T02:07:48.063Z,14.53
2022-10-05T02:10:42.596Z,14.54
2022-10-05T02:13:21.328Z,14.50
2022-10-05T02:16:17.109Z,14.39
2022-10-05T02:18:59.864Z,14.40
2022-10-05T02:21:30.290Z,14.41
2022-10-05T02:24:22.184Z,14.45
2022-10-05T02:26:54.395Z,14.44
2022-10-05T02:29:29.920Z,14.47
2022-10-05T02:32:12.059Z,14.47
2022-10-05T02:34:43.577Z,14.44
2022-10-05T02:38:08.959Z,14.43
2022-10-05T02:41:23.015Z,14.39
2022-10-05T02:44:10.947Z,14.35
2022-10-05T02:47:07.811Z,14.31
2022-10-05T02:50:11.172Z,14.26
2022-10-05T02:53:09.542Z,14.23
2022-10-05T02:56:26.520Z,14.19
2022-10-05T02:59:40.115Z,14.19
2022-10-05T03:02:38.279Z,14.24
2022-10-05T03:05:33.957Z,14.25
2022-10-05T03:08:30.007Z,14.23
2022-10-05T03:11:19.007Z,14.22
2022-10-05T03:14:27.358Z,14.18
2022-10-05T03:17:25.465Z,14.25
2022-10-05T03:20:57.120Z,14.29
2022-10-05T03:24:00.896Z,14.33
2022-10-05T03:27:07.764Z,14.33
2022-10-05T03:30:27.826Z,14.36
2022-10-05T03:33:14.921Z,14.36
2022-10-05T03:35:57.880Z,14.38
2022-10-05T03:38:41.422Z,14.45
2022-10-05T03:41:27.019Z,14.50
2022-10-05T03:44:36.918Z,14.51
2022-10-05T03:47:34.514Z,14.56
2022-10-05T03:50:12.176Z,14.61
2022-10-05T03:53:06.868Z,14.67
2022-10-05T03:56:12.693Z,14.66
2022-10-05T03:59:00.846Z,14.68
2022-10-05T04:01:58.931Z,14.75
2022-10-05T04:04:40.074Z,14.77
2022-10-05T04:07:26.052Z,14.82
2022-10-05T04:09:56.292Z,14.82
2022-10-05T04:12:33.379Z,14.84
2022-10-05T04:15:28.593Z,14.87
2022-10-05T04:18:34.295Z,14.86
2022-10-05T04:21:30.595Z,14.89
2022-10-05T04:24:33.765Z,14.90
2022-10-05T04:27:28.135Z,14.88
2022-10-05T04:30:13.808Z,14.88
2022-10-05T04:32:55.623Z,14.87
2022-10-05T04:35:54.233Z,14.84
2022-10-05T04:38:47.003Z,14.85
2022-10-05T04:42:02.662Z,14.84
2022-10-05T04:44:58.980Z,14.86
2022-10-05T04:48:05.055Z,14.87
2022-10-05T04:51:01.737Z,14.88
2022-10-05T04:53:44.553Z,14.88
2022-10-05T04:56:33.895Z,14.89
2022-10-05T04:59:07.314Z,14.91
2022-10-05T05:02:26.072Z,14.90
2022-10-05T05:05:21.765Z,14.89
2022-10-05T05:08:32.912Z,14.90
2022-10-05T05:11:33.321Z,14.91
2022-10-05T05:14:27.292Z,14.94
2022-10-05T05:17:32.934Z,14.95
2022-10-05T05:20:22.634Z,14.95
2022-10-05T05:23:18.707Z,14.98
2022-10-05T05:26:09.878Z,14.94
2022-10-05T05:28:54.939Z,15.02
2022-10-05T05:31:48.660Z,15.03
2022-10-05T05:35:03.573Z,15.03
2022-10-05T05:38:07.036Z,15.00
2022-10-05T05:40:57.140Z,14.99
2022-10-05T05:44:00.458Z,14.95
2022-10-05T05:47:03.137Z,14.94
2022-10-05T05:50:35.578Z,14.90
2022-10-05T05:53:40.796Z,14.88
2022-10-05T05:56:20.424Z,14.88
2022-10-05T05:59:02.389Z,14.91
2022-10-05T06:01:44.579Z,14.93
2022-10-05T06:04:26.746Z,14.95
2022-10-05T06:06:58.322Z,14.93
2022-10-05T06:09:40.259Z,14.94
2022-10-05T06:12:48.106Z,14.98
2022-10-05T06:15:47.652Z,14.98
2022-10-05T06:18:21.330Z,15.00
2022-10-05T06:21:07.500Z,15.03
2022-10-05T06:23:46.904Z,15.07
2022-10-05T06:26:32.964Z,15.11
2022-10-05T06:29:16.884Z,15.17
2022-10-05T06:32:35.694Z,15.14
2022-10-05T06:35:16.230Z,15.21
2022-10-05T06:38:29.272Z,15.27
2022-10-05T06:41:24.156Z,15.27
2022-10-05T06:44:21.927Z,15.28
2022-10-05T06:47:27.953Z,15.27
2022-10-05T06:50:38.649Z,15.32
2022-10-05T06:54:04.616Z,15.37
2022-10-05T06:56:45.509Z,15.38
2022-10-05T06:59:49.921Z,15.43
2022-10-05T07:02:29.489Z,15.51
2022-10-05T07:05:31.217Z,15.58
2022-10-05T07:08:09.901Z,15.62
2022-10-05T07:10:59.828Z,15.73
2022-10-05T07:13:59.488Z,15.80
2022-10-05T07:17:07.964Z,15.88
2022-10-05T07:19:45.827Z,15.97
2022-10-05T07:22:34.207Z,16.07
2022-10-05T07:25:53.012Z,16.16
2022-10-05T07:28:49.731Z,16.27
2022-10-05T07:31:47.170Z,16.38
2022-10-05T07:35:01.620Z,16.48
2022-10-05T07:37:55.089Z,16.55
2022-10-05T07:40:56.550Z,16.67
2022-10-05T07:44:02.185Z,16.77
2022-10-05T07:46:52.119Z,16.88
2022-10-05T07:49:40.857Z,16.97
2022-10-05T07:52:36.813Z,17.07
2022-10-05T07:55:22.031Z,17.17
2022-10-05T07:58:31.673Z,17.25
2022-10-05T08:01:22.947Z,17.33
2022-10-05T08:04:05.962Z,17.42
2022-10-05T08:06:50.418Z,17.45
2022-10-05T08:09:34.564Z,17.58
2022-10-05T08:12:32.218Z,17.65
2022-10-05T08:15:16.871Z,17.72
2022-10-05T08:18:01.561Z,17.76
2022-10-05T08:20:54.319Z,17.86
2022-10-05T08:23:47.071Z,17.92
2022-10-05T08:26:55.378Z,18.03
2022-10-05T08:29:35.624Z,18.08
2022-10-05T08:32:57.515Z,18.18
2022-10-05T08:35:38.914Z,18.06
2022-10-05T08:38:24.096Z,18.29
2022-10-05T08:41:55.229Z,18.41
2022-10-05T08:45:18.275Z,18.50
2022-10-05T08:48:19.874Z,18.64
2022-10-05T08:51:15.612Z,18.70
2022-10-05T08:54:21.729Z,18.72
2022-10-05T08:56:58.866Z,18.88
2022-10-05T09:00:00.315Z,18.97
2022-10-05T09:03:05.079Z,19.05
2022-10-05T09:05:50.987Z,19.15
2022-10-05T09:08:51.285Z,19.24
2022-10-05T09:11:46.543Z,19.32
2022-10-05T09:15:23.874Z,19.40
2022-10-05T09:18:37.961Z,19.46
2022-10-05T09:22:09.475Z,19.52
2022-10-05T09:24:55.487Z,19.65
2022-10-05T09:27:49.454Z,19.71
2022-10-05T09:30:33.551Z,19.82
2022-10-05T09:33:39.577Z,19.87
2022-10-05T09:36:30.481Z,19.91
2022-10-05T09:39:45.036Z,19.96
2022-10-05T09:42:22.006Z,20.03
2022-10-05T09:45:32.607Z,20.10
2022-10-05T09:49:04.101Z,20.18
2022-10-05T09:52:19.169Z,20.23
2022-10-05T09:55:32.018Z,20.30
2022-10-05T09:59:17.672Z,20.33
2022-10-05T10:02:19.635Z,20.47
2022-10-05T10:05:30.089Z,20.53
2022-10-05T10:08:20.587Z,20.61
2022-10-05T10:11:20.232Z,20.75
2022-10-05T10:14:09.350Z,20.83
2022-10-05T10:17:10.897Z,20.93
2022-10-05T10:20:10.062Z,20.98
2022-10-05T10:23:09.798Z,21.05
2022-10-05T10:26:13.328Z,21.12
2022-10-05T10:29:16.739Z,21.16
2022-10-05T10:32:05.533Z,21.22
2022-10-05T10:35:01.485Z,21.29
2022-10-05T10:37:39.460Z,21.34
2022-10-05T10:40:28.649Z,21.40
2022-10-05T10:42:56.961Z,21.45
2022-10-05T10:45:59.242Z,21.57
2022-10-05T10:48:30.498Z,21.63
2022-10-05T10:50:58.583Z,21.68
2022-10-05T10:54:15.042Z,21.82
2022-10-05T10:57:14.217Z,21.85
2022-10-05T11:00:18.667Z,21.96
2022-10-05T11:03:28.360Z,22.01
2022-10-05T11:06:25.271Z,22.09
2022-10-05T11:09:37.300Z,22.18
2022-10-05T11:12:11.471Z,22.22
2022-10-05T11:15:05.840Z,22.32
2022-10-05T11:18:20.608Z,22.33
2022-10-05T11:21:15.396Z,22.36
2022-10-05T11:24:14.339Z,22.47
2022-10-05T11:27:26.220Z,22.55
2022-10-05T11:30:23.761Z,22.58
2022-10-05T11:33:13.096Z,22.67
2022-10-05T11:36:26.279Z,22.76
2022-10-05T11:39:30.644Z,22.79
2022-10-05T11:42:45.847Z,22.87
2022-10-05T11:45:50.927Z,22.92
2022-10-05T11:48:50.935Z,22.96
2022-10-05T11:52:16.884Z,22.99
2022-10-05T11:55:11.401Z,23.06
2022-10-05T11:58:19.590Z,23.12
2022-10-05T12:00:58.483Z,23.23
2022-10-05T12:04:04.580Z,23.27
2022-10-05T12:06:38.805Z,23.30
2022-10-05T12:09:25.440Z,23.38
2022-10-05T12:12:22.720Z,23.45
2022-10-05T12:15:36.142Z,23.49
2022-10-05T12:18:29.989Z,23.55
2022-10-05T12:21:16.262Z,23.61
2022-10-05T12:24:49.065Z,23.57
2022-10-05T12:27:28.821Z,23.66
2022-10-05T12:30:38.120Z,23.78
2022-10-05T12:33:27.813Z,23.79
2022-10-05T12:36:10.290Z,23.87
2022-10-05T12:39:16.666Z,23.93
2022-10-05T12:42:22.677Z,23.97
2022-10-05T12:45:11.327Z,24.03
2022-10-05T12:48:19.008Z,24.10
2022-10-05T12:50:55.262Z,24.06
2022-10-05T12:54:01.175Z,24.16
2022-10-05T12:56:53.649Z,24.19
2022-10-05T12:59:45.644Z,24.24
2022-10-05T13:02:46.531Z,24.30
2022-10-05T13:05:47.271Z,24.33
2022-10-05T13:09:03.835Z,24.34
2022-10-05T13:11:43.769Z,24.39
2022-10-05T13:14:54.913Z,24.44
2022-10-05T13:17:30.394Z,24.44
2022-10-05T13:20:02.626Z,24.46
2022-10-05T13:22:43.796Z,24.54
2022-10-05T13:25:29.966Z,24.57
2022-10-05T13:28:22.158Z,24.61
2022-10-05T13:31:26.684Z,24.64
2022-10-05T13:34:16.412Z,24.70
2022-10-05T13:37:41.316Z,24.75
2022-10-05T13:40:38.014Z,24.78
2022-10-05T13:43:48.680Z,24.80
2022-10-05T13:46:48.040Z,24.62
2022-10-05T13:49:31.702Z,24.79
2022-10-05T13:52:31.643Z,24.88
2022-10-05T13:55:11.572Z,24.92
2022-10-05T13:58:02.592Z,24.95
2022-10-05T14:00:43.690Z,24.97
2022-10-05T14:03:38.223Z,24.99
2022-10-05T14:06:17.086Z,25.01
2022-10-05T14:08:52.591Z,25.05
2022-10-05T14:11:36.706Z,25.09
2022-10-05T14:14:17.964Z,25.09
2022-10-05T14:16:57.030Z,25.05
2022-10-05T14:19:41.538Z,25.11
2022-10-05T14:22:23.480Z,25.14
2022-10-05T14:25:09.855Z,25.15
2022-10-05T14:28:37.136Z,25.12
2022-10-05T14:31:26.839Z,25.17
2022-10-05T14:33:55.942Z,25.18
2022-10-05T14:36:39.242Z,25.24
2022-10-05T14:39:13.117Z,25.24
2022-10-05T14:41:50.620Z,25.26
2022-10-05T14:44:33.562Z,25.31
2022-10-05T14:47:20.423Z,25.27
2022-10-05T14:50:18.146Z,25.32
2022-10-05T14:53:20.325Z,25.37
2022-10-05T14:56:17.509Z,25.41
2022-10-05T14:59:20.270Z,25.35
2022-10-05T15:02:23.639Z,25.46
2022-10-05T15:05:23.387Z,25.48
2022-10-05T15:07:57.212Z,25.37
2022-10-05T15:10:40.545Z,25.52
2022-10-05T15:13:18.728Z,25.55
2022-10-05T15:15:58.142Z,25.54
2022-10-05T15:18:57.776Z,25.58
2022-10-05T15:22:11.178Z,25.58
2022-10-05T15:25:01.901Z,25.58
2022-10-05T15:27:59.144Z,25.58
2022-10-05T15:30:27.494Z,25.54
2022-10-05T15:33:05.441Z,25.59
2022-10-05T15:35:45.811Z,25.60
2022-10-05T15:38:51.362Z,25.61
2022-10-05T15:41:30.464Z,25.57
2022-10-05T15:44:19.565Z,25.62
2022-10-05T15:46:58.323Z,25.61
2022-10-05T15:49:51.130Z,25.64
2022-10-05T15:52:37.999Z,25.62
2022-10-05T15:55:49.503Z,25.59
2022-10-05T15:58:47.165Z,25.55
2022-10-05T16:01:33.706Z,25.56
2022-10-05T16:04:21.868Z,25.53
2022-10-05T16:07:21.983Z,25.54
2022-10-05T16:10:22.166Z,25.51
2022-10-05T16:13:05.214Z,25.47
2022-10-05T16:16:17.451Z,25.41
2022-10-05T16:19:12.874Z,25.31
2022-10-05T16:21:58.288Z,25.35
2022-10-05T16:24:54.782Z,25.27
2022-10-05T16:27:36.470Z,25.28
2022-10-05T16:30:16.727Z,25.24
2022-10-05T16:33:12.617Z,25.19
2022-10-05T16:35:50.068Z,25.14
2022-10-05T16:38:40.626Z,25.06
2022-10-05T16:41:49.891Z,24.98
2022-10-05T16:44:40.433Z,24.94
2022-10-05T16:47:27.733Z,24.86
2022-10-05T16:50:12.355Z,24.83
2022-10-05T16:52:46.535Z,24.77
2022-10-05T16:55:34.792Z,24.74
2022-10-05T16:58:24.585Z,24.66
2022-10-05T17:01:23.890Z,24.59
2022-10-05T17:04:23.902Z,24.48
2022-10-05T17:07:15.377Z,24.45
2022-10-05T17:09:52.766Z,24.38
2022-10-05T17:13:28.933Z,24.18
2022-10-05T17:16:22.352Z,24.05
2022-10-05T17:19:32.209Z,23.89
2022-10-05T17:22:47.082Z,23.72
2022-10-05T17:26:13.609Z,23.55
2022-10-05T17:29:37.295Z,23.48
2022-10-05T17:32:17.922Z,23.39
2022-10-05T17:35:19.153Z,23.27
2022-10-05T17:38:19.208Z,23.22
2022-10-05T17:41:12.951Z,23.18
2022-10-05T17:44:03.204Z,23.13
2022-10-05T17:46:48.314Z,23.14
2022-10-05T17:49:34.267Z,23.11
2022-10-05T17:52:39.745Z,23.07
2022-10-05T17:55:34.339Z,23.02
2022-10-05T17:58:29.185Z,22.98
2022-10-05T18:00:57.676Z,22.89
2022-10-05T18:04:27.479Z,22.74
2022-10-05T18:06:56.347Z,22.71
2022-10-05T18:09:26.271Z,22.69
2022-10-05T18:12:27.410Z,22.62
2022-10-05T18:15:07.409Z,22.61
2022-10-05T18:17:42.981Z,22.59
2022-10-05T18:20:28.661Z,22.57
2022-10-05T18:23:10.052Z,22.50
2022-10-05T18:26:05.642Z,22.43
2022-10-05T18:29:37.510Z,22.27
2022-10-05T18:32:55.060Z,22.25
2022-10-05T18:36:22.111Z,22.19
2022-10-05T18:39:20.195Z,22.17
2022-10-05T18:42:30.840Z,22.12
2022-10-05T18:45:44.015Z,22.11
2022-10-05T18:48:31.499Z,22.02
2022-10-05T18:51:29.536Z,22.06
2022-10-05T18:54:45.320Z,22.01
2022-10-05T18:57:21.227Z,22.01
2022-10-05T19:00:24.819Z,21.98
2022-10-05T19:03:19.299Z,21.96
2022-10-05T19:06:13.233Z,21.94
2022-10-05T19:09:06.188Z,21.86
2022-10-05T19:11:46.750Z,21.81
2022-10-05T19:14:28.581Z,21.75
2022-10-05T19:17:07.361Z,21.70
2022-10-05T19:20:46.493Z,21.57
2022-10-05T19:23:56.227Z,21.59
2022-10-05T19:27:01.440Z,21.60
2022-10-05T19:29:51.484Z,21.58
2022-10-05T19:32:58.790Z,21.59
2022-10-05T19:35:52.784Z,21.55
2022-10-05T19:38:35.944Z,21.49
2022-10-05T19:41:52.519Z,21.53
2022-10-05T19:44:43.480Z,21.49
2022-10-05T19:47:36.361Z,21.50
2022-10-05T19:50:30.201Z,21.49
2022-10-05T19:53:38.288Z,21.40
2022-10-05T19:56:32.024Z,21.42
2022-10-05T19:59:19.437Z,21.33
2022-10-05T20:01:57.255Z,21.31
2022-10-05T20:04:45.860Z,21.37
2022-10-05T20:07:21.033Z,21.35
2022-10-05T20:10:15.337Z,21.40
2022-10-05T20:12:58.283Z,21.36
2022-10-05T20:15:53.912Z,21.26
2022-10-05T20:19:08.058Z,21.31
2022-10-05T20:21:59.548Z,21.29
2022-10-05T20:24:49.544Z,21.28
2022-10-05T20:27:45.247Z,21.26
2022-10-05T20:30:27.648Z,21.24
2022-10-05T20:32:58.512Z,21.17
2022-10-05T20:35:31.542Z,21.20
2022-10-05T20:38:01.490Z,21.24
2022-10-05T20:40:31.273Z,21.25
2022-10-05T20:42:59.908Z,21.19
2022-10-05T20:45:28.712Z,21.23
2022-10-05T20:47:56.753Z,21.13
2022-10-05T20:50:24.944Z,21.16
2022-10-05T20:52:52.931Z,21.18
2022-10-05T20:55:21.171Z,21.17
2022-10-05T20:57:49.260Z,21.14
2022-10-05T21:00:18.061Z,21.16
2022-10-05T21:02:46.876Z,21.11
2022-10-05T21:05:18.151Z,21.06
2022-10-05T21:07:46.891Z,21.06
2022-10-05T21:10:15.508Z,21.06
2022-10-05T21:12:43.763Z,20.99
2022-10-05T21:15:12.899Z,21.05
2022-10-05T21:17:41.274Z,21.02
2022-10-05T21:20:11.126Z,21.00
2022-10-05T21:22:39.324Z,20.98
2022-10-05T21:25:09.264Z,20.97
2022-10-05T21:27:37.903Z,20.82
2022-10-05T21:30:06.691Z,20.85
2022-10-05T21:32:36.277Z,20.73
2022-10-05T21:35:07.052Z,20.79
2022-10-05T21:37:34.880Z,20.76
2022-10-05T21:40:02.910Z,20.69
2022-10-05T21:42:31.254Z,20.73
2022-10-05T21:45:00.257Z,20.69
2022-10-05T21:47:28.585Z,20.58
2022-10-05T21:49:57.395Z,20.58
2022-10-05T21:52:26.371Z,20.50
2022-10-05T21:54:54.737Z,20.43
2022-10-05T21:57:22.826Z,20.40
2022-10-05T21:59:51.117Z,20.36
2022-10-05T22:02:18.797Z,20.25
2022-10-05T22:04:46.944Z,20.28
2022-10-05T22:07:20.632Z,20.26
2022-10-05T22:09:52.275Z,20.23
2022-10-05T22:12:21.591Z,20.14
2022-10-05T22:14:49.669Z,20.12
2022-10-05T22:17:31.421Z,20.14
2022-10-05T22:20:00.760Z,20.08
2022-10-05T22:22:29.919Z,20.07
2022-10-05T22:24:57.895Z,20.09
2022-10-05T22:27:29.472Z,20.09
2022-10-05T22:29:58.065Z,19.90
2022-10-05T22:32:25.805Z,19.99
2022-10-05T22:34:55.019Z,20.03
2022-10-05T22:37:23.260Z,19.96
2022-10-05T22:39:51.552Z,20.01
2022-10-05T22:42:19.831Z,19.99
2022-10-05T22:44:47.592Z,19.99
2022-10-05T22:47:17.430Z,20.01
2022-10-05T22:49:45.310Z,19.95
2022-10-05T22:52:14.415Z,19.96
2022-10-05T22:54:42.474Z,19.95
2022-10-05T22:57:13.498Z,19.95
2022-10-05T22:59:42.837Z,19.93
2022-10-05T23:02:14.169Z,19.87
2022-10-05T23:04:42.261Z,19.76
2022-10-05T23:07:10.279Z,19.74
2022-10-05T23:09:38.131Z,19.86
2022-10-05T23:12:07.750Z,19.87
2022-10-05T23:14:35.807Z,19.81
2022-10-05T23:17:05.414Z,19.79
2022-10-05T23:19:33.262Z,19.73
2022-10-05T23:22:02.173Z,19.69
2022-10-05T23:24:30.067Z,19.59
2022-10-05T23:26:58.050Z,19.55
2022-10-05T23:29:28.296Z,19.58
2022-10-05T23:31:56.365Z,19.50
2022-10-05T23:34:25.825Z,19.51
2022-10-05T23:36:53.686Z,19.48
2022-10-05T23:39:21.603Z,19.50
2022-10-05T23:41:49.382Z,19.51
2022-10-05T23:44:17.217Z,19.49
2022-10-05T23:46:45.015Z,19.41
2022-10-05T23:49:15.601Z,19.33
2022-10-05T23:51:45.309Z,19.19
2022-10-05T23:54:13.126Z,19.24
2022-10-05T23:56:42.185Z,19.25
2022-10-05T23:59:10.325Z,19.30
